MMAS/AGU METAR and TAF weather

Enter ICAO airport designator
Station Type Date Time Source
MMAS METAR 2020/01/18 12:42 UTC NOAA

MMAS 181242Z 05007KT 6SM FEW200 10/08 A3031 RMK 8/002 HZY


Station Type Date Time Source
MMAS Decoded METAR 2020/01/18 12:42 UTC NOAA

Aguascalientes, Ags., Mexico (MMAS) 21-53N 102-18W
Jan 18, 2020 - 07:42 AM EST / 2020.01.18 1242 UTC
Wind: from the NE (050 degrees) at 8 MPH (7 KT):0
Visibility: 6 mile(s):0
Sky conditions: mostly clear
Temperature: 50 F (10 C)
Dew Point: 46 F (8 C)
Relative Humidity: 87%
Pressure (altimeter): 30.31 in. Hg (1026 hPa)
ob: MMAS 181242Z 05007KT 6SM FEW200 10/08 A3031 RMK 8/002 HZY
cycle: 12

Station Type Date Time Source
MMAS TAF 2020/01/18 06:18 UTC NOAA

TAF MMAS 180413Z 1806/1906 06005KT P6SM SCT100 BKN200
FM181800 06010KT P6SM BKN100 BKN200
FM190300 06005KT P6SM BKN100 BKN200

Example: see airport list